Martell, Nebraska
Current Conditions -  °F | °C
As of 3:22 AM on Friday 31 Oct 2014 (Local Time) from KLNK Reporting Station
Scattered Clouds Scattered Clouds  
Wind Chill: 22°   Ceiling: Unl
Heat Index: 34°   Visibility: 10mi
Dew Point: 23°   Wind: 23mph
Humidity: 64%   Direction: 360°N
Pressure: 30.48"   Gusts: 37mph
Location:  40.64°N, 96.76°W
Report Text: KLNK 310822Z AUTO 36020G32KT 10SM SCT028 01/M05 A3048 RMK AO2 PK WND 36032/0816 T00111050
Loading
Personal Weather Stations






























Interactive Weather Map
Tropical Storm Tracking
New forecast layout! Learn more

10-Day Weather Forecast

Advertisements
Track Severe Weather on mobile